Time;durP1;ratioP1;P1;durP2;ratioP2;P2;SDS_P1;SDS_P2;PMS_P1;PMS_P2;Temp;Humidity;BMP_temperature;BMP_pressure;BME280_temperature;BME280_humidity;BME280_pressure;Samples;Min_cycle;Max_cycle;Signal;HPM_P1;HPM_P2
2021/04/26 00:00:47;;;;;;;9.00;5.07;;;5.90;89.20;;;;;;5012793;28;20177;-78
2021/04/26 00:03:13;;;;;;;7.13;4.68;;;5.80;89.10;;;;;;5012358;28;20233;-78
2021/04/26 00:05:40;;;;;;;9.27;4.80;;;5.90;90.00;;;;;;4995451;28;20202;-78
2021/04/26 00:08:06;;;;;;;8.10;4.90;;;5.90;89.30;;;;;;4991428;28;20650;-77
2021/04/26 00:10:33;;;;;;;6.25;5.28;;;5.90;90.20;;;;;;4999772;28;20572;-78
2021/04/26 00:13:00;;;;;;;7.85;4.28;;;5.80;89.80;;;;;;5010923;28;20237;-78
2021/04/26 00:15:43;;;;;;;10.35;5.07;;;5.80;89.80;;;;;;5011259;28;20219;-77
2021/04/26 00:18:11;;;;;;;7.28;4.90;;;5.80;89.80;;;;;;5012228;28;20256;-77
2021/04/26 00:20:38;;;;;;;7.20;4.57;;;5.70;90.10;;;;;;5011435;28;20668;-77
2021/04/26 00:23:05;;;;;;;7.22;4.95;;;5.70;90.00;;;;;;5011953;28;20232;-78
2021/04/26 00:25:31;;;;;;;15.07;6.05;;;5.60;90.40;;;;;;5010812;28;20256;-78
2021/04/26 00:27:58;;;;;;;6.85;4.63;;;5.60;90.50;;;;;;5010864;28;20221;-78
2021/04/26 00:30:25;;;;;;;6.60;4.97;;;5.60;90.70;;;;;;5012131;28;20216;-78
2021/04/26 00:32:53;;;;;;;5.90;5.20;;;5.60;90.70;;;;;;5011829;28;20228;-78
2021/04/26 00:35:20;;;;;;;7.50;4.90;;;5.50;90.50;;;;;;5009569;28;20228;-77
2021/04/26 00:37:48;;;;;;;9.13;5.00;;;5.50;90.60;;;;;;5026965;28;20591;-78
2021/04/26 00:40:16;;;;;;;5.40;4.63;;;5.50;90.50;;;;;;5010078;28;20186;-78
2021/04/26 00:42:43;;;;;;;6.15;4.70;;;5.60;90.70;;;;;;5011870;28;20264;-78
2021/04/26 00:45:12;;;;;;;7.95;5.28;;;5.60;91.00;;;;;;5011824;28;20177;-78
2021/04/26 00:47:40;;;;;;;8.18;4.82;;;5.50;90.90;;;;;;5001278;28;20223;-78
2021/04/26 00:50:11;;;;;;;7.10;4.57;;;5.40;90.90;;;;;;5011088;28;20218;-78
2021/04/26 00:52:38;;;;;;;12.23;5.93;;;5.40;90.80;;;;;;5011001;28;20720;-78
2021/04/26 00:55:05;;;;;;;10.07;4.90;;;5.30;90.80;;;;;;5010821;28;20186;-78
2021/04/26 00:57:32;;;;;;;9.00;4.75;;;5.20;90.90;;;;;;5011335;28;20301;-78
2021/04/26 00:59:58;;;;;;;5.85;4.15;;;5.20;91.10;;;;;;5010698;28;20201;-78
2021/04/26 01:02:25;;;;;;;6.85;4.97;;;5.10;91.40;;;;;;5026306;28;20707;-78
2021/04/26 01:04:52;;;;;;;5.88;4.50;;;5.10;91.60;;;;;;5010787;28;20192;-78
2021/04/26 01:07:22;;;;;;;11.85;5.65;;;5.10;91.80;;;;;;5010710;28;20244;-78
2021/04/26 01:09:50;;;;;;;6.10;5.25;;;5.00;92.10;;;;;;5013662;28;20236;-77
2021/04/26 01:12:55;;;;;;;6.53;4.60;;;4.90;92.20;;;;;;5015308;28;20221;-77
2021/04/26 01:15:30;;;;;;;8.52;5.72;;;4.90;92.20;;;;;;5015827;28;20197;-78
2021/04/26 01:18:03;;;;;;;9.40;5.20;;;4.90;92.40;;;;;;5014156;28;20710;-77
2021/04/26 01:20:45;;;;;;;9.07;5.05;;;4.90;92.30;;;;;;5014180;28;20484;-78
2021/04/26 01:23:48;;;;;;;8.02;5.22;;;4.80;92.50;;;;;;5030489;28;20229;-78
2021/04/26 01:26:47;;;;;;;6.45;5.63;;;4.80;92.60;;;;;;4997097;28;20582;-78
2021/04/26 01:29:34;;;;;;;6.07;4.78;;;4.70;92.70;;;;;;4984732;28;20219;-78
2021/04/26 01:32:18;;;;;;;5.88;5.32;;;4.60;93.10;;;;;;5030402;28;20553;-78
2021/04/26 01:34:47;;;;;;;9.02;6.03;;;4.60;93.10;;;;;;5029327;28;20284;-77
2021/04/26 01:37:23;;;;;;;6.57;4.85;;;4.60;93.30;;;;;;5015074;28;20237;-78
2021/04/26 01:39:51;;;;;;;6.18;5.10;;;4.60;93.40;;;;;;5014144;28;20192;-78
2021/04/26 01:42:20;;;;;;;6.50;5.88;;;4.60;93.80;;;;;;5010185;28;20218;-77
2021/04/26 01:44:47;;;;;;;6.60;4.82;;;4.50;93.90;;;;;;4994588;28;20204;-78
2021/04/26 01:47:15;;;;;;;7.85;5.50;;;4.40;94.70;;;;;;5002488;28;20275;-78
2021/04/26 01:49:42;;;;;;;6.55;5.60;;;4.30;94.80;;;;;;5014198;28;20221;-78
2021/04/26 01:52:11;;;;;;;8.80;5.40;;;4.30;95.00;;;;;;5013512;28;20221;-77
2021/04/26 01:54:39;;;;;;;8.93;5.55;;;4.30;94.80;;;;;;5014183;28;20228;-78
2021/04/26 01:57:07;;;;;;;7.53;6.07;;;4.30;95.10;;;;;;4994886;28;20256;-78
2021/04/26 01:59:37;;;;;;;11.48;5.25;;;4.30;95.00;;;;;;5010304;28;20195;-78
2021/04/26 02:02:06;;;;;;;7.82;5.95;;;4.20;95.00;;;;;;4993510;28;20304;-78
2021/04/26 02:04:35;;;;;;;9.38;5.40;;;4.20;95.10;;;;;;4994541;28;20190;-77
2021/04/26 02:07:20;;;;;;;8.18;5.55;;;4.20;95.40;;;;;;4995028;28;20714;-78
2021/04/26 02:10:07;;;;;;;8.27;5.45;;;4.10;95.40;;;;;;4999530;28;20542;-78
2021/04/26 02:12:34;;;;;;;8.50;5.05;;;4.20;95.70;;;;;;5024582;28;20331;-78
2021/04/26 02:15:07;;;;;;;12.00;5.32;;;4.20;95.70;;;;;;5016801;28;20643;-77
2021/04/26 02:17:35;;;;;;;8.77;6.18;;;4.10;95.80;;;;;;5034342;28;20651;-78
2021/04/26 02:20:04;;;;;;;6.75;5.35;;;4.00;95.80;;;;;;5018821;28;20186;-78
2021/04/26 02:22:31;;;;;;;12.77;5.47;;;4.00;95.80;;;;;;5011696;28;20221;-78
2021/04/26 02:24:57;;;;;;;8.80;5.25;;;4.00;95.60;;;;;;5029606;28;20615;-78
2021/04/26 02:27:27;;;;;;;10.07;6.30;;;4.00;95.80;;;;;;5029469;28;20580;-78
2021/04/26 02:29:57;;;;;;;5.72;5.18;;;3.90;96.20;;;;;;5029855;28;20209;-78
2021/04/26 02:32:31;;;;;;;11.95;5.55;;;3.80;96.50;;;;;;5014186;28;20221;-78
2021/04/26 02:35:33;;;;;;;9.52;6.40;;;3.80;97.10;;;;;;5009955;28;20213;-77
2021/04/26 02:38:04;;;;;;;9.25;6.03;;;3.80;97.30;;;;;;5029230;28;20218;-78
2021/04/26 02:40:36;;;;;;;6.10;5.20;;;3.80;97.10;;;;;;5025031;28;20201;-78
2021/04/26 02:43:04;;;;;;;7.80;5.40;;;3.80;96.80;;;;;;4992945;28;20632;-78
2021/04/26 02:45:35;;;;;;;5.85;5.35;;;3.80;97.20;;;;;;4977357;28;20229;-78
2021/04/26 02:48:02;;;;;;;10.35;5.00;;;3.70;97.10;;;;;;5007072;28;20222;-78
2021/04/26 02:50:35;;;;;;;7.85;5.63;;;3.70;97.30;;;;;;5012301;28;20222;-78
2021/04/26 02:53:10;;;;;;;11.10;5.75;;;3.70;97.40;;;;;;5013322;28;20308;-78
2021/04/26 02:55:39;;;;;;;8.90;5.20;;;3.70;97.50;;;;;;5008549;28;20261;-78
2021/04/26 02:58:07;;;;;;;9.68;5.70;;;3.70;97.30;;;;;;5008877;28;20226;-78
2021/04/26 03:00:35;;;;;;;9.93;6.25;;;3.70;97.30;;;;;;5011940;28;20197;-78
2021/04/26 03:03:28;;;;;;;9.18;5.22;;;3.70;97.20;;;;;;5010249;28;20733;-78
2021/04/26 03:06:00;;;;;;;9.63;5.40;;;3.60;97.40;;;;;;5028768;28;20309;-78
2021/04/26 03:08:31;;;;;;;9.98;6.05;;;3.60;97.70;;;;;;5013742;28;20244;-77
2021/04/26 03:10:59;;;;;;;7.25;5.38;;;3.50;97.70;;;;;;5012710;28;20220;-78
2021/04/26 03:13:27;;;;;;;7.30;6.30;;;3.50;98.10;;;;;;5012192;28;20241;-78
2021/04/26 03:15:55;;;;;;;12.15;6.15;;;3.40;98.60;;;;;;5012054;28;20575;-78
2021/04/26 03:18:26;;;;;;;7.75;6.97;;;3.40;98.90;;;;;;5011552;28;20511;-78
2021/04/26 03:20:53;;;;;;;7.82;7.03;;;3.50;99.30;;;;;;4996181;28;20200;-78
2021/04/26 03:23:23;;;;;;;10.57;7.43;;;3.50;99.50;;;;;;5011897;28;20233;-78
2021/04/26 03:25:58;;;;;;;8.30;7.28;;;3.40;99.90;;;;;;5027290;28;20249;-78
2021/04/26 03:28:28;;;;;;;11.57;7.78;;;3.40;99.90;;;;;;5011508;28;20221;-78
2021/04/26 03:30:59;;;;;;;10.40;6.10;;;3.40;99.90;;;;;;4995237;28;20675;-78
2021/04/26 03:33:38;;;;;;;8.55;6.15;;;3.50;99.90;;;;;;5012770;28;20229;-78
2021/04/26 03:36:06;;;;;;;7.88;6.57;;;3.40;99.90;;;;;;5010776;28;20217;-78
2021/04/26 03:38:35;;;;;;;12.20;7.53;;;3.30;99.90;;;;;;5012735;28;20695;-78
2021/04/26 03:41:03;;;;;;;8.23;6.80;;;3.30;99.90;;;;;;5011721;28;20190;-78
2021/04/26 03:43:31;;;;;;;12.73;8.05;;;3.20;99.90;;;;;;5011478;28;20232;-78
2021/04/26 03:46:05;;;;;;;13.73;7.63;;;3.20;99.90;;;;;;5011746;28;20592;-78
2021/04/26 03:48:58;;;;;;;13.00;7.25;;;3.10;99.90;;;;;;4975192;28;20213;-78
2021/04/26 03:51:44;;;;;;;11.85;7.80;;;3.20;99.90;;;;;;5012567;28;20197;-78
2021/04/26 03:54:29;;;;;;;11.15;7.75;;;3.20;99.90;;;;;;5012878;28;20296;-78
2021/04/26 03:56:56;;;;;;;15.88;8.60;;;3.20;99.90;;;;;;5010996;28;20564;-78
2021/04/26 03:59:23;;;;;;;12.38;8.15;;;3.20;99.90;;;;;;5028280;28;20248;-78
2021/04/26 04:01:50;;;;;;;13.23;8.23;;;3.20;99.90;;;;;;5010334;28;20305;-78
2021/04/26 04:04:18;;;;;;;15.68;8.60;;;3.20;99.90;;;;;;5007999;28;20186;-78
2021/04/26 04:07:16;;;;;;;12.80;7.80;;;3.20;99.90;;;;;;4999830;28;20627;-78
2021/04/26 04:10:07;;;;;;;14.00;9.70;;;3.20;99.90;;;;;;5002684;28;20208;-78
2021/04/26 04:12:52;;;;;;;10.80;8.45;;;3.10;99.90;;;;;;5012313;28;20240;-78
2021/04/26 04:15:18;;;;;;;14.32;7.78;;;3.00;99.90;;;;;;5011119;28;20216;-78
2021/04/26 04:17:45;;;;;;;10.85;8.50;;;3.00;99.90;;;;;;5010100;28;20217;-78
2021/04/26 04:20:13;;;;;;;14.38;7.90;;;3.00;99.90;;;;;;5007760;28;20194;-78
2021/04/26 04:22:43;;;;;;;15.93;8.80;;;3.00;99.90;;;;;;4991316;28;20643;-78
2021/04/26 04:25:14;;;;;;;15.68;8.40;;;3.00;99.90;;;;;;5009818;28;20193;-78
2021/04/26 04:27:44;;;;;;;16.45;9.07;;;3.00;99.90;;;;;;5011984;28;20335;-78
2021/04/26 04:30:14;;;;;;;18.58;9.05;;;3.00;99.90;;;;;;5027368;28;20205;-78
2021/04/26 04:32:59;;;;;;;18.80;9.50;;;3.00;99.90;;;;;;5011951;28;20279;-78
2021/04/26 04:35:58;;;;;;;16.30;11.10;;;3.10;99.90;;;;;;5010563;28;20218;-78
2021/04/26 04:38:54;;;;;;;14.73;9.30;;;3.10;99.90;;;;;;4992241;28;20210;-78
2021/04/26 04:41:42;;;;;;;10.93;7.90;;;3.10;99.90;;;;;;5010427;28;20248;-78
2021/04/26 04:44:09;;;;;;;12.18;8.55;;;3.10;99.90;;;;;;5010899;28;20742;-78
2021/04/26 04:46:35;;;;;;;13.07;8.77;;;3.10;99.90;;;;;;5024027;28;20292;-78
2021/04/26 04:49:13;;;;;;;22.05;10.15;;;3.10;99.90;;;;;;4997666;28;20210;-78
2021/04/26 04:51:45;;;;;;;15.38;7.75;;;3.10;99.90;;;;;;5010279;28;20189;-78
2021/04/26 04:54:14;;;;;;;11.20;8.23;;;3.10;99.90;;;;;;5010799;28;20276;-78
2021/04/26 04:56:54;;;;;;;18.42;9.00;;;3.10;99.90;;;;;;4994654;28;20221;-78
2021/04/26 04:59:22;;;;;;;15.63;9.45;;;3.10;99.90;;;;;;5010811;28;20559;-78
2021/04/26 05:01:58;;;;;;;14.52;8.88;;;3.30;99.90;;;;;;5009844;28;20220;-78
2021/04/26 05:04:43;;;;;;;14.13;9.18;;;3.30;99.90;;;;;;5010909;28;20608;-78
2021/04/26 05:07:29;;;;;;;20.42;10.35;;;3.30;99.90;;;;;;5011421;28;20594;-78
2021/04/26 05:10:15;;;;;;;14.68;9.02;;;3.30;99.90;;;;;;5010754;28;20697;-78
2021/04/26 05:13:20;;;;;;;15.68;9.65;;;3.40;99.90;;;;;;4989649;28;20226;-78
2021/04/26 05:15:52;;;;;;;14.20;9.85;;;3.40;99.90;;;;;;4988743;28;20241;-78
2021/04/26 05:18:18;;;;;;;22.70;10.15;;;3.60;99.90;;;;;;4995281;28;20265;-78
2021/04/26 05:20:44;;;;;;;16.95;10.50;;;3.70;99.90;;;;;;5007249;28;20293;-78
2021/04/26 05:23:12;;;;;;;17.02;9.30;;;3.90;99.90;;;;;;5006910;28;20234;-78
2021/04/26 05:25:39;;;;;;;13.10;9.05;;;4.00;99.90;;;;;;4998400;28;20253;-78
2021/04/26 05:28:06;;;;;;;24.65;9.82;;;4.00;99.90;;;;;;5011183;28;20328;-78
2021/04/26 05:30:35;;;;;;;14.20;9.15;;;4.20;99.90;;;;;;5010620;28;20209;-78
2021/04/26 05:33:02;;;;;;;25.42;11.18;;;4.40;99.90;;;;;;5025229;28;20615;-78
2021/04/26 05:35:47;;;;;;;15.65;9.80;;;4.60;99.90;;;;;;5010792;28;20205;-78
2021/04/26 05:38:18;;;;;;;17.20;10.02;;;4.70;99.90;;;;;;5009777;28;20214;-78
2021/04/26 05:40:49;;;;;;;19.98;9.10;;;4.80;99.90;;;;;;5009064;28;20190;-78
2021/04/26 05:43:20;;;;;;;23.35;9.50;;;5.00;99.90;;;;;;5009742;28;20709;-78
2021/04/26 05:45:50;;;;;;;17.02;9.70;;;5.20;99.90;;;;;;5010079;28;20618;-78
2021/04/26 05:48:20;;;;;;;15.05;8.15;;;5.40;99.90;;;;;;5008149;28;20221;-78
2021/04/26 05:50:46;;;;;;;16.42;8.90;;;5.40;99.90;;;;;;5011343;28;20248;-78
2021/04/26 05:53:13;;;;;;;8.10;6.85;;;5.50;99.90;;;;;;5025715;28;20256;-78
2021/04/26 05:55:39;;;;;;;12.18;8.45;;;5.90;99.70;;;;;;5005717;28;20253;-77
2021/04/26 05:58:05;;;;;;;11.63;7.63;;;6.40;99.90;;;;;;4993969;28;20223;-78
2021/04/26 06:00:32;;;;;;;10.80;7.72;;;6.50;97.30;;;;;;4995383;28;20194;-78
2021/04/26 06:03:00;;;;;;;10.68;6.63;;;6.70;98.60;;;;;;4994831;28;20247;-78
2021/04/26 06:05:27;;;;;;;9.48;6.43;;;6.90;96.40;;;;;;5005338;28;20210;-77
2021/04/26 06:07:55;;;;;;;7.55;6.30;;;7.20;93.70;;;;;;5014631;28;20233;-78
2021/04/26 06:10:21;;;;;;;9.63;6.70;;;7.30;92.90;;;;;;5013003;28;20703;-78
2021/04/26 06:12:50;;;;;;;9.02;7.13;;;7.50;92.90;;;;;;5014172;28;20217;-78
2021/04/26 06:15:17;;;;;;;8.07;5.63;;;7.80;91.40;;;;;;5014653;28;20202;-77
2021/04/26 06:17:43;;;;;;;8.60;5.95;;;8.30;90.80;;;;;;5011982;28;20221;-78
2021/04/26 06:20:13;;;;;;;8.18;5.68;;;8.50;85.80;;;;;;5007650;28;20193;-77
2021/04/26 06:22:39;;;;;;;7.63;6.13;;;9.00;83.10;;;;;;4994618;28;20228;-78
2021/04/26 06:25:06;;;;;;;9.03;5.90;;;9.20;82.00;;;;;;4998408;28;20459;-78
2021/04/26 06:27:33;;;;;;;9.60;6.50;;;9.40;79.90;;;;;;4987809;28;20462;-78
2021/04/26 06:29:59;;;;;;;10.70;6.57;;;9.80;77.40;;;;;;5013105;28;20463;-78
2021/04/26 06:32:28;;;;;;;9.17;6.27;;;10.30;73.40;;;;;;4996264;28;20492;-78
2021/04/26 06:34:55;;;;;;;13.87;6.23;;;10.60;71.40;;;;;;5012596;28;20438;-78
2021/04/26 06:37:22;;;;;;;8.73;6.37;;;10.80;70.40;;;;;;5013675;28;20836;-78
2021/04/26 06:39:48;;;;;;;9.70;6.10;;;11.10;69.20;;;;;;4995160;28;20438;-78
2021/04/26 06:42:16;;;;;;;8.17;6.47;;;10.90;68.30;;;;;;5012448;28;20468;-78
2021/04/26 06:44:43;;;;;;;8.57;6.20;;;11.20;68.80;;;;;;5012712;28;20534;-78
2021/04/26 06:47:11;;;;;;;11.50;7.70;;;11.00;67.50;;;;;;5012291;28;20474;-78
2021/04/26 06:49:38;;;;;;;11.03;6.70;;;11.30;65.40;;;;;;5013066;28;20517;-78
2021/04/26 06:52:05;;;;;;;7.80;5.70;;;11.20;66.60;;;;;;5012968;28;20533;-78
2021/04/26 06:54:34;;;;;;;7.17;5.57;;;11.20;66.80;;;;;;5010389;28;20433;-78
2021/04/26 06:57:01;;;;;;;10.43;5.80;;;11.40;64.40;;;;;;5011995;28;20475;-78
2021/04/26 06:59:27;;;;;;;8.37;5.73;;;11.40;63.90;;;;;;5013563;28;20447;-78
2021/04/26 07:01:53;;;;;;;7.70;5.87;;;11.00;65.40;;;;;;5011787;28;20825;-78
2021/04/26 07:04:20;;;;;;;9.20;5.77;;;10.70;67.20;;;;;;5011836;28;20445;-78
2021/04/26 07:06:46;;;;;;;5.70;5.20;;;10.30;67.80;;;;;;5013026;28;20487;-78
2021/04/26 07:09:13;;;;;;;6.50;5.07;;;10.10;70.10;;;;;;5013101;28;20197;-77
2021/04/26 07:11:40;;;;;;;7.28;5.60;;;9.80;73.40;;;;;;5011214;28;20550;-78
2021/04/26 07:14:07;;;;;;;7.32;5.40;;;9.60;72.70;;;;;;5011851;28;20285;-78
2021/04/26 07:16:34;;;;;;;8.63;5.75;;;9.30;73.20;;;;;;5000826;28;20229;-77
2021/04/26 07:19:01;;;;;;;6.20;5.38;;;9.30;74.50;;;;;;5008565;28;20182;-78
2021/04/26 07:21:27;;;;;;;6.97;4.88;;;9.50;76.20;;;;;;5027950;28;20204;-77
2021/04/26 07:23:54;;;;;;;7.72;5.03;;;9.60;71.80;;;;;;5012495;28;20269;-78
2021/04/26 07:26:22;;;;;;;8.13;6.10;;;9.60;74.40;;;;;;4991140;28;20765;-78
2021/04/26 07:28:48;;;;;;;10.45;5.70;;;9.50;74.30;;;;;;5042981;28;20226;-78
2021/04/26 07:31:14;;;;;;;8.02;5.00;;;9.60;74.30;;;;;;5010350;28;20284;-78
2021/04/26 07:33:41;;;;;;;10.00;5.90;;;9.80;73.10;;;;;;5010741;28;20296;-78
2021/04/26 07:36:08;;;;;;;10.93;5.53;;;10.00;72.90;;;;;;5005793;28;20567;-77
2021/04/26 07:38:35;;;;;;;6.30;5.10;;;10.10;70.70;;;;;;5022707;28;20305;-78
2021/04/26 07:41:02;;;;;;;9.45;5.00;;;10.20;70.80;;;;;;5006278;28;20221;-78
2021/04/26 07:43:28;;;;;;;5.78;4.95;;;10.50;70.00;;;;;;5012347;28;20222;-78
2021/04/26 07:45:55;;;;;;;6.57;4.70;;;10.60;69.60;;;;;;5012345;28;20208;-78
2021/04/26 07:48:22;;;;;;;6.57;4.43;;;10.80;69.40;;;;;;5010456;28;20592;-78
2021/04/26 07:50:50;;;;;;;5.32;4.82;;;10.90;64.60;;;;;;5011408;28;20565;-78
2021/04/26 07:53:17;;;;;;;9.45;4.88;;;10.90;66.70;;;;;;5003610;28;20214;-78
2021/04/26 07:55:43;;;;;;;7.20;5.27;;;11.20;65.80;;;;;;5000923;28;20532;-78
2021/04/26 07:58:10;;;;;;;6.70;5.18;;;11.30;66.00;;;;;;5011114;28;20454;-78
2021/04/26 08:00:37;;;;;;;5.60;4.03;;;11.70;63.50;;;;;;5011887;28;20211;-78
2021/04/26 08:03:04;;;;;;;6.70;5.13;;;11.90;62.10;;;;;;5011215;28;20459;-78
2021/04/26 08:05:34;;;;;;;8.97;4.77;;;12.10;60.00;;;;;;5009550;28;20551;-78
2021/04/26 08:08:02;;;;;;;5.40;3.57;;;12.40;60.20;;;;;;5012250;28;20471;-78
2021/04/26 08:10:28;;;;;;;4.90;4.20;;;12.60;56.90;;;;;;5010882;28;20472;-78
2021/04/26 08:12:55;;;;;;;5.57;4.07;;;12.90;57.20;;;;;;5011003;28;20468;-78
2021/04/26 08:15:22;;;;;;;6.13;5.17;;;13.00;55.90;;;;;;5012478;28;20506;-78
2021/04/26 08:17:53;;;;;;;11.17;4.80;;;13.20;56.20;;;;;;5007588;28;20481;-78
2021/04/26 08:20:20;;;;;;;6.07;3.73;;;13.50;53.40;;;;;;5024348;28;20433;-78
2021/04/26 08:22:47;;;;;;;3.63;3.33;;;13.60;52.50;;;;;;5011445;28;20488;-78
2021/04/26 08:25:13;;;;;;;6.13;3.30;;;13.70;49.80;;;;;;5009396;28;20528;-78
2021/04/26 08:27:40;;;;;;;4.60;3.73;;;13.50;50.90;;;;;;5011529;28;20479;-78
2021/04/26 08:30:08;;;;;;;5.90;3.57;;;13.60;50.50;;;;;;5011935;28;20499;-78
2021/04/26 08:32:35;;;;;;;4.80;2.90;;;13.60;47.30;;;;;;5009261;28;20468;-78
2021/04/26 08:35:03;;;;;;;3.47;2.50;;;13.80;50.40;;;;;;5011390;28;20795;-78
2021/04/26 08:37:30;;;;;;;5.43;2.20;;;13.70;47.60;;;;;;5010565;28;20503;-78
2021/04/26 08:39:56;;;;;;;3.90;2.47;;;13.90;47.90;;;;;;5009264;28;20445;-78
2021/04/26 08:42:26;;;;;;;2.93;2.30;;;13.90;47.20;;;;;;4994356;28;20557;-78
2021/04/26 08:44:52;;;;;;;4.10;2.13;;;14.10;44.80;;;;;;5007906;28;20441;-78
2021/04/26 08:47:22;;;;;;;2.30;2.10;;;13.90;46.60;;;;;;5011354;28;20472;-77
2021/04/26 08:49:54;;;;;;;2.10;1.90;;;14.10;46.00;;;;;;5009362;28;20471;-78
2021/04/26 08:52:21;;;;;;;3.40;2.27;;;14.30;44.50;;;;;;5010375;28;20476;-78
2021/04/26 08:54:47;;;;;;;4.63;2.70;;;14.40;43.00;;;;;;5010824;28;20431;-78
2021/04/26 08:57:14;;;;;;;4.67;2.87;;;14.70;44.20;;;;;;5009819;28;20463;-78
2021/04/26 08:59:45;;;;;;;1.90;1.70;;;14.70;42.10;;;;;;5011694;28;20428;-78
2021/04/26 09:02:12;;;;;;;2.80;2.20;;;14.40;43.10;;;;;;5009647;28;20486;-78
2021/04/26 09:04:55;;;;;;;2.30;1.87;;;14.30;42.50;;;;;;5010394;28;20949;-78
2021/04/26 09:07:22;;;;;;;2.30;2.07;;;14.10;43.10;;;;;;5011363;28;20836;-78
2021/04/26 09:09:51;;;;;;;2.70;1.90;;;13.90;43.70;;;;;;5010481;28;20470;-78
2021/04/26 09:12:29;;;;;;;2.73;2.23;;;14.10;43.70;;;;;;5011304;28;20495;-78
2021/04/26 09:14:58;;;;;;;3.60;1.53;;;14.00;44.10;;;;;;5010503;28;20439;-78
2021/04/26 09:17:39;;;;;;;2.20;1.80;;;14.20;41.80;;;;;;5011087;28;20464;-78
2021/04/26 09:20:15;;;;;;;2.57;1.80;;;14.20;40.20;;;;;;5010384;28;20481;-78
2021/04/26 09:23:05;;;;;;;4.20;1.73;;;14.30;41.30;;;;;;5011168;28;20464;-78
2021/04/26 09:25:36;;;;;;;3.40;1.77;;;14.30;40.20;;;;;;5008696;28;20476;-78
2021/04/26 09:28:04;;;;;;;2.20;1.63;;;14.20;41.30;;;;;;5010631;28;20472;-78
2021/04/26 09:30:35;;;;;;;3.63;2.13;;;14.20;41.20;;;;;;5004218;28;20564;-78
2021/04/26 09:33:18;;;;;;;2.00;1.80;;;14.20;39.70;;;;;;5011697;28;20484;-78
2021/04/26 09:35:45;;;;;;;5.13;2.00;;;14.20;40.80;;;;;;5015118;28;20497;-78
2021/04/26 09:38:29;;;;;;;5.00;2.50;;;14.20;39.40;;;;;;5012632;28;20534;-78
2021/04/26 09:41:18;;;;;;;3.40;2.03;;;14.30;41.10;;;;;;5009212;28;20498;-78
2021/04/26 09:44:07;;;;;;;3.43;2.20;;;14.10;41.50;;;;;;5010653;28;20492;-78
2021/04/26 09:46:50;;;;;;;3.57;2.00;;;13.90;41.90;;;;;;5013668;28;20876;-78
2021/04/26 09:49:17;;;;;;;3.90;2.60;;;13.60;40.50;;;;;;5014196;28;20425;-78
2021/04/26 09:52:12;;;;;;;2.60;1.50;;;13.60;42.80;;;;;;5014914;28;20768;-78
2021/04/26 09:54:42;;;;;;;4.57;1.90;;;13.50;39.40;;;;;;5014443;28;20471;-78
2021/04/26 09:57:10;;;;;;;2.20;2.00;;;13.50;42.10;;;;;;5013850;28;20548;-78
2021/04/26 09:59:36;;;;;;;6.77;2.27;;;13.50;42.40;;;;;;5015356;28;20779;-78
2021/04/26 10:02:04;;;;;;;3.67;2.13;;;13.60;43.60;;;;;;5014537;28;20878;-78
2021/04/26 10:04:32;;;;;;;3.90;1.90;;;13.70;41.80;;;;;;5014112;28;20428;-78
2021/04/26 10:07:00;;;;;;;6.70;2.30;;;13.90;41.80;;;;;;5013928;28;20887;-78
2021/04/26 10:09:27;;;;;;;3.57;2.20;;;14.00;40.30;;;;;;5014909;28;20491;-78
2021/04/26 10:11:54;;;;;;;3.70;2.23;;;13.70;42.10;;;;;;5013040;28;20547;-78
2021/04/26 10:14:21;;;;;;;4.30;2.90;;;13.70;40.70;;;;;;5011118;28;20677;-78
2021/04/26 10:17:07;;;;;;;7.20;3.47;;;13.70;41.00;;;;;;4995316;28;20942;-78
2021/04/26 10:19:38;;;;;;;3.10;2.90;;;13.60;41.10;;;;;;5002970;28;20448;-78
2021/04/26 10:22:06;;;;;;;4.23;2.00;;;13.60;42.10;;;;;;5029290;28;20461;-79
2021/04/26 10:24:34;;;;;;;2.17;1.90;;;13.60;41.00;;;;;;5013433;28;20440;-78
2021/04/26 10:27:08;;;;;;;5.07;2.57;;;13.50;41.60;;;;;;4994454;28;20469;-78
2021/04/26 10:29:39;;;;;;;3.60;2.30;;;13.60;42.80;;;;;;5009884;28;20476;-78
2021/04/26 10:32:13;;;;;;;2.70;2.17;;;13.70;39.30;;;;;;4994568;28;20549;-78
2021/04/26 10:34:43;;;;;;;12.10;2.50;;;13.80;41.00;;;;;;5001739;28;20810;-78
2021/04/26 10:37:15;;;;;;;4.17;2.50;;;13.90;40.40;;;;;;5013820;28;21038;-78
2021/04/26 10:39:55;;;;;;;4.70;2.40;;;13.90;39.80;;;;;;5012858;28;20413;-78
2021/04/26 10:42:35;;;;;;;6.33;2.60;;;14.00;40.80;;;;;;5012553;28;20713;-78
2021/04/26 10:45:23;;;;;;;6.30;2.27;;;14.10;42.40;;;;;;5014095;28;20432;-78
2021/04/26 10:47:58;;;;;;;3.23;2.00;;;14.10;41.80;;;;;;5013841;28;21053;-78
2021/04/26 10:50:28;;;;;;;2.60;1.97;;;14.10;39.50;;;;;;5002193;28;20465;-78
2021/04/26 10:52:59;;;;;;;4.33;2.00;;;14.40;41.30;;;;;;5005831;28;20571;-78
2021/04/26 10:55:26;;;;;;;4.40;1.80;;;14.30;43.80;;;;;;5008836;28;20552;-78
2021/04/26 10:57:57;;;;;;;4.37;2.33;;;14.40;42.20;;;;;;5013578;28;20461;-78
2021/04/26 11:03:05;;;;;;;1.60;1.40;;;14.30;42.00;;;;;;5013192;28;20523;-78
2021/04/26 11:05:44;;;;;;;3.10;2.50;;;14.40;40.80;;;;;;5012382;28;20547;-78
2021/04/26 11:08:26;;;;;;;4.53;2.27;;;14.60;40.30;;;;;;5028287;28;20456;-78
2021/04/26 11:13:55;;;;;;;2.60;2.40;;;14.40;38.90;;;;;;5042140;28;21066;-78
2021/04/26 11:16:57;;;;;;;3.90;2.30;;;14.30;40.80;;;;;;4994087;28;20807;-78
2021/04/26 11:19:25;;;;;;;2.97;2.10;;;14.40;39.70;;;;;;5005844;28;20477;-78
2021/04/26 11:21:54;;;;;;;3.77;3.03;;;14.60;40.70;;;;;;5012949;28;20457;-78
2021/04/26 11:24:22;;;;;;;4.07;2.53;;;14.70;38.10;;;;;;5013198;28;20440;-78
2021/04/26 11:27:07;;;;;;;4.67;2.40;;;14.90;38.90;;;;;;5010203;28;20985;-78
2021/04/26 11:29:55;;;;;;;2.63;1.97;;;14.80;37.10;;;;;;4993742;28;20929;-78
2021/04/26 11:32:23;;;;;;;2.23;1.77;;;14.80;38.60;;;;;;4986709;28;20454;-78
2021/04/26 11:34:50;;;;;;;4.97;2.60;;;14.80;39.60;;;;;;5002411;28;21015;-79
2021/04/26 11:37:17;;;;;;;3.40;1.90;;;14.80;39.60;;;;;;5012745;28;20467;-78
2021/04/26 11:39:45;;;;;;;3.70;2.30;;;14.70;36.00;;;;;;5011973;28;20433;-78
2021/04/26 11:42:21;;;;;;;4.57;2.53;;;14.70;40.40;;;;;;5012790;28;20881;-79
2021/04/26 11:44:48;;;;;;;2.77;2.03;;;14.80;37.80;;;;;;5013458;28;20420;-78
2021/04/26 11:47:20;;;;;;;3.40;2.00;;;14.80;39.60;;;;;;5008621;28;20479;-78
2021/04/26 11:49:53;;;;;;;5.03;2.20;;;15.00;38.70;;;;;;5011006;28;20468;-78
2021/04/26 11:52:22;;;;;;;2.83;2.10;;;14.90;39.10;;;;;;5011913;28;20827;-78
2021/04/26 11:54:52;;;;;;;4.87;2.20;;;14.90;40.40;;;;;;5011807;28;20432;-78
2021/04/26 11:57:24;;;;;;;2.47;2.27;;;15.00;41.00;;;;;;5010036;28;20468;-78
2021/04/26 11:59:52;;;;;;;2.90;2.40;;;15.00;43.60;;;;;;5012288;28;20429;-78
2021/04/26 12:02:26;;;;;;;4.90;2.50;;;15.20;39.70;;;;;;5012201;28;20496;-78
2021/04/26 12:05:01;;;;;;;2.67;2.47;;;15.20;41.60;;;;;;4998735;28;20532;-78
2021/04/26 12:07:28;;;;;;;4.53;2.00;;;15.20;38.60;;;;;;5012115;28;20515;-78
2021/04/26 12:10:00;;;;;;;3.40;2.63;;;15.30;36.80;;;;;;5009917;28;20507;-78
2021/04/26 12:12:29;;;;;;;5.23;2.70;;;15.30;35.20;;;;;;5008270;28;20860;-78
2021/04/26 12:14:58;;;;;;;4.50;2.40;;;15.30;39.80;;;;;;4992808;28;20424;-78
2021/04/26 12:17:27;;;;;;;2.80;2.43;;;15.20;39.60;;;;;;5001900;28;20469;-78
2021/04/26 12:19:59;;;;;;;5.53;3.60;;;15.20;37.50;;;;;;5011012;28;20479;-78
2021/04/26 12:22:32;;;;;;;2.50;2.27;;;15.20;37.80;;;;;;5031121;28;20994;-78
2021/04/26 12:25:03;;;;;;;6.10;2.03;;;15.30;36.60;;;;;;5009651;28;20991;-78
2021/04/26 12:27:30;;;;;;;4.70;3.53;;;15.50;38.60;;;;;;5011871;28;20997;-77
2021/04/26 12:30:08;;;;;;;4.43;2.87;;;15.60;37.20;;;;;;5002536;28;20526;-78
2021/04/26 12:32:34;;;;;;;5.00;2.77;;;15.70;38.40;;;;;;5002478;28;20561;-78
2021/04/26 12:35:04;;;;;;;9.87;3.37;;;15.70;38.00;;;;;;5009912;28;20437;-77
2021/04/26 12:37:36;;;;;;;3.40;3.10;;;15.60;38.50;;;;;;5010471;28;20542;-78
2021/04/26 12:40:12;;;;;;;4.37;3.30;;;15.60;39.80;;;;;;5010888;28;20445;-78
2021/04/26 12:42:40;;;;;;;3.50;2.37;;;15.60;38.10;;;;;;5012013;28;20566;-78
2021/04/26 12:45:22;;;;;;;3.13;2.67;;;15.60;37.90;;;;;;5010528;28;20438;-78
2021/04/26 12:47:56;;;;;;;5.13;2.87;;;15.70;38.20;;;;;;4981388;28;20478;-78
2021/04/26 12:50:46;;;;;;;5.43;2.93;;;15.70;36.60;;;;;;5007011;28;20462;-78
2021/04/26 12:53:35;;;;;;;5.83;2.70;;;15.40;37.00;;;;;;5010548;28;20461;-78
2021/04/26 12:56:03;;;;;;;2.90;2.70;;;15.40;37.90;;;;;;5022042;28;20550;-78
2021/04/26 12:58:32;;;;;;;3.47;2.80;;;15.40;35.60;;;;;;5011567;28;20462;-78
2021/04/26 13:01:00;;;;;;;5.13;3.30;;;15.40;36.90;;;;;;4993308;28;20474;-78
2021/04/26 13:03:32;;;;;;;3.50;2.67;;;15.30;36.80;;;;;;4991658;28;20553;-78
2021/04/26 13:06:02;;;;;;;5.30;2.60;;;15.40;38.10;;;;;;5009077;28;20845;-78
2021/04/26 13:08:30;;;;;;;3.47;2.43;;;15.60;38.60;;;;;;5010637;28;20472;-78
2021/04/26 13:11:00;;;;;;;3.70;1.80;;;15.50;36.70;;;;;;5010388;28;20465;-78
2021/04/26 13:13:28;;;;;;;2.20;2.00;;;15.50;36.80;;;;;;5010379;28;21000;-78
2021/04/26 13:15:55;;;;;;;4.87;2.40;;;15.60;36.10;;;;;;5003245;28;20549;-78
2021/04/26 13:18:23;;;;;;;8.43;2.40;;;15.60;38.10;;;;;;4996286;28;20832;-78